Time;durP1;ratioP1;P1;durP2;ratioP2;P2;SDS_P1;SDS_P2;PMS_P1;PMS_P2;Temp;Humidity;BMP_temperature;BMP_pressure;BME280_temperature;BME280_humidity;BME280_pressure;Samples;Min_cycle;Max_cycle;Signal;HPM_P1;HPM_P2
2021/09/01 00:00:03;;;;;;;9.27;7.55;;;;;;;14.75;82.37;101330.56;6220371;23;20089;-82
2021/09/01 00:02:30;;;;;;;9.25;6.90;;;;;;;14.74;82.19;101332.38;6220426;23;20084;-83
2021/09/01 00:04:56;;;;;;;10.90;7.57;;;;;;;14.74;81.77;101324.38;6221485;23;20028;-82
2021/09/01 00:07:23;;;;;;;8.38;6.93;;;;;;;14.76;81.59;101329.63;6223118;23;20072;-82
2021/09/01 00:09:51;;;;;;;10.10;7.25;;;;;;;14.76;81.45;101331.44;6224480;23;20268;-83
2021/09/01 00:12:17;;;;;;;9.68;6.95;;;;;;;14.78;81.69;101333.09;6224067;23;20059;-82
2021/09/01 00:14:44;;;;;;;11.02;7.38;;;;;;;14.79;81.34;101336.63;6222952;23;20088;-82
2021/09/01 00:17:11;;;;;;;8.98;6.97;;;;;;;14.80;81.42;101333.84;6223270;23;20474;-83
2021/09/01 00:19:38;;;;;;;8.05;7.10;;;;;;;14.80;81.26;101338.31;6222824;23;20005;-82
2021/09/01 00:22:04;;;;;;;9.63;7.13;;;;;;;14.81;80.65;101332.03;6222378;23;20081;-83
2021/09/01 00:24:31;;;;;;;8.88;6.55;;;;;;;14.77;80.83;101326.03;6222359;23;20012;-82
2021/09/01 00:26:58;;;;;;;10.75;7.20;;;;;;;14.79;80.93;101333.94;6221842;23;20020;-82
2021/09/01 00:29:24;;;;;;;10.13;7.68;;;;;;;14.75;80.85;101333.22;6222632;23;20020;-82
2021/09/01 00:31:51;;;;;;;9.80;7.82;;;;;;;14.74;80.95;101328.84;6222699;23;20020;-83
2021/09/01 00:34:18;;;;;;;10.23;7.63;;;;;;;14.68;81.51;101319.31;6222043;23;20024;-82
2021/09/01 00:36:45;;;;;;;9.55;8.07;;;;;;;14.64;81.69;101308.88;6222576;23;20031;-83
2021/09/01 00:39:11;;;;;;;12.23;7.57;;;;;;;14.68;81.78;101315.78;6222311;23;20023;-82
2021/09/01 00:41:38;;;;;;;11.45;7.50;;;;;;;14.69;81.84;101312.19;6221714;23;20020;-83
2021/09/01 00:44:25;;;;;;;9.30;7.13;;;;;;;14.65;81.84;101305.28;6222717;23;20088;-82
2021/09/01 00:46:53;;;;;;;10.95;7.60;;;;;;;14.65;81.65;101315.94;6222924;23;20100;-82
2021/09/01 00:49:20;;;;;;;12.25;8.23;;;;;;;14.61;81.54;101312.59;6222536;23;20629;-83
2021/09/01 00:51:49;;;;;;;9.90;7.13;;;;;;;14.61;81.87;101314.38;6222079;23;20024;-82
2021/09/01 00:54:24;;;;;;;11.48;7.57;;;;;;;14.57;81.77;101315.47;6223320;23;20411;-82
2021/09/01 00:56:53;;;;;;;10.68;7.85;;;;;;;14.54;82.15;101315.59;6199438;23;20032;-82
2021/09/01 00:59:24;;;;;;;10.45;7.90;;;;;;;14.48;82.37;101316.75;6199038;23;20052;-82
2021/09/01 01:01:52;;;;;;;11.18;7.97;;;;;;;14.45;82.89;101316.06;6224495;23;20030;-82
2021/09/01 01:04:20;;;;;;;13.15;8.10;;;;;;;14.41;83.29;101326.00;6237841;23;20012;-81
2021/09/01 01:06:46;;;;;;;12.50;7.90;;;;;;;14.38;83.30;101326.13;6242314;23;20036;-80
2021/09/01 01:09:13;;;;;;;12.50;8.20;;;;;;;14.32;83.91;101326.44;6217279;23;20026;-80
2021/09/01 01:12:10;;;;;;;10.40;7.60;;;;;;;14.28;83.92;101330.16;6216729;23;20048;-80
2021/09/01 01:14:39;;;;;;;11.18;7.97;;;;;;;14.23;84.41;101322.38;6197173;23;20095;-82
2021/09/01 01:17:14;;;;;;;14.10;8.52;;;;;;;14.23;84.61;101334.84;6224522;23;20469;-82
2021/09/01 01:19:41;;;;;;;12.13;8.68;;;;;;;14.21;84.50;101332.25;6223678;23;20516;-82
2021/09/01 01:22:10;;;;;;;10.18;7.60;;;;;;;14.20;84.76;101338.50;6223448;23;20099;-82
2021/09/01 01:25:00;;;;;;;9.13;7.70;;;;;;;14.18;84.99;101344.84;6225155;23;20024;-82
2021/09/01 01:27:37;;;;;;;9.43;7.85;;;;;;;14.17;84.93;101354.63;6223751;23;20022;-81
2021/09/01 01:30:09;;;;;;;9.35;7.75;;;;;;;14.14;85.24;101348.59;6223566;23;20024;-82
2021/09/01 01:32:36;;;;;;;10.18;8.13;;;;;;;14.12;85.37;101361.13;6222160;23;20017;-81
2021/09/01 01:35:03;;;;;;;13.07;8.02;;;;;;;14.10;85.68;101360.31;6219919;23;20364;-83
2021/09/01 01:37:30;;;;;;;11.88;7.75;;;;;;;14.05;86.05;101358.72;6222144;23;20095;-82
2021/09/01 01:39:57;;;;;;;9.80;7.57;;;;;;;14.04;85.85;101362.31;6220497;23;20337;-82
2021/09/01 01:42:24;;;;;;;10.60;7.85;;;;;;;14.00;86.12;101366.09;6194817;23;20021;-82
2021/09/01 01:44:51;;;;;;;10.55;8.13;;;;;;;13.93;86.24;101369.94;6193704;23;20103;-82
2021/09/01 01:47:17;;;;;;;12.10;8.63;;;;;;;13.84;86.53;101366.84;6222605;23;20020;-81
2021/09/01 01:49:44;;;;;;;12.32;8.27;;;;;;;13.83;87.12;101367.78;6195917;23;20095;-82
2021/09/01 01:52:10;;;;;;;10.32;8.30;;;;;;;13.77;87.33;101365.38;6221904;23;20024;-82
2021/09/01 01:54:37;;;;;;;13.20;8.63;;;;;;;13.74;87.36;101370.84;6221840;23;20103;-81
2021/09/01 01:57:04;;;;;;;10.75;8.45;;;;;;;13.74;87.33;101370.84;6221812;23;20017;-82
2021/09/01 01:59:30;;;;;;;11.77;8.30;;;;;;;13.69;87.70;101368.41;6222193;23;20076;-82
2021/09/01 02:01:57;;;;;;;12.02;8.23;;;;;;;13.67;87.97;101376.44;6221955;23;20096;-82
2021/09/01 02:04:24;;;;;;;13.27;9.45;;;;;;;13.63;88.28;101368.66;6221875;23;20651;-82
2021/09/01 02:06:51;;;;;;;13.63;8.35;;;;;;;13.61;88.16;101367.84;6221784;23;20104;-82
2021/09/01 02:09:17;;;;;;;11.90;8.52;;;;;;;13.56;88.44;101365.38;6222998;23;20378;-82
2021/09/01 02:11:44;;;;;;;13.95;8.77;;;;;;;13.56;89.05;101361.88;6222225;23;20103;-82
2021/09/01 02:14:11;;;;;;;18.58;8.77;;;;;;;13.55;88.97;101360.13;6221120;23;20628;-81
2021/09/01 02:16:37;;;;;;;11.98;8.50;;;;;;;13.55;88.93;101360.13;6222252;23;20023;-82
2021/09/01 02:19:04;;;;;;;12.15;8.18;;;;;;;13.57;89.40;101353.81;6221748;23;20092;-82
2021/09/01 02:21:31;;;;;;;11.90;8.25;;;;;;;13.53;89.23;101346.06;6199517;23;20076;-81
2021/09/01 02:23:57;;;;;;;11.60;8.40;;;;;;;13.59;89.02;101356.41;6199643;23;20020;-81
2021/09/01 02:26:24;;;;;;;12.30;8.30;;;;;;;13.59;89.00;101351.09;6223411;23;20020;-82
2021/09/01 02:28:50;;;;;;;10.98;8.20;;;;;;;13.58;89.38;101355.53;6221139;23;20425;-82
2021/09/01 02:31:17;;;;;;;14.02;8.13;;;;;;;13.58;89.50;101358.22;6221666;23;20024;-82
2021/09/01 02:33:44;;;;;;;10.68;8.10;;;;;;;13.59;89.19;101356.41;6222614;22;20060;-82
2021/09/01 02:36:10;;;;;;;12.85;7.97;;;;;;;13.59;89.23;101357.28;6222775;23;20831;-82
2021/09/01 02:38:41;;;;;;;8.82;7.00;;;;;;;13.58;89.28;101349.34;6223971;23;20068;-82
2021/09/01 02:41:08;;;;;;;11.00;7.65;;;;;;;13.59;89.33;101351.09;6223124;23;20051;-82
2021/09/01 02:43:36;;;;;;;13.13;8.00;;;;;;;13.60;89.69;101361.66;6224236;23;20064;-83
2021/09/01 02:46:04;;;;;;;12.65;8.27;;;;;;;13.57;89.20;101352.94;6229052;23;20012;-82
2021/09/01 02:48:31;;;;;;;11.73;7.85;;;;;;;13.56;89.55;101357.41;6230541;23;20051;-81
2021/09/01 02:50:58;;;;;;;11.95;8.13;;;;;;;13.58;90.08;101370.66;6241783;23;20031;-82
2021/09/01 02:53:24;;;;;;;11.20;7.82;;;;;;;13.55;89.73;101366.31;6242928;23;20020;-82
2021/09/01 02:55:51;;;;;;;11.75;8.15;;;;;;;13.58;89.84;101368.84;6241900;23;20021;-82
2021/09/01 02:58:17;;;;;;;13.20;7.90;;;;;;;13.57;90.10;101374.25;6243064;23;20020;-83
2021/09/01 03:00:44;;;;;;;11.68;7.90;;;;;;;13.60;89.95;101376.78;6242805;23;20028;-82
2021/09/01 03:03:11;;;;;;;12.07;7.80;;;;;;;13.54;89.90;101375.22;6224761;23;20024;-82
2021/09/01 03:05:38;;;;;;;10.25;7.63;;;;;;;13.53;89.63;101378.00;6227948;23;20055;-80
2021/09/01 03:08:06;;;;;;;12.38;8.25;;;;;;;13.49;90.27;101382.56;6238330;23;20028;-81
2021/09/01 03:10:33;;;;;;;13.48;8.60;;;;;;;13.47;90.40;101383.56;6233767;23;20051;-81
2021/09/01 03:12:59;;;;;;;12.35;8.43;;;;;;;13.40;90.95;101377.63;6225116;23;20031;-81
2021/09/01 03:15:26;;;;;;;17.27;8.98;;;;;;;13.41;91.00;101379.34;6227788;23;20108;-82
2021/09/01 03:17:52;;;;;;;10.45;8.23;;;;;;;13.35;90.96;101369.00;6230452;23;20336;-80
2021/09/01 03:20:19;;;;;;;11.18;7.82;;;;;;;13.38;91.09;101383.97;6237596;23;20036;-81
2021/09/01 03:22:46;;;;;;;14.07;8.45;;;;;;;13.33;91.36;101371.72;6223100;23;20017;-82
2021/09/01 03:25:12;;;;;;;12.77;8.15;;;;;;;13.34;91.32;101385.91;6221969;23;20016;-81
2021/09/01 03:27:40;;;;;;;11.45;8.10;;;;;;;13.30;91.39;101377.16;6222647;23;20059;-82
2021/09/01 03:30:07;;;;;;;11.52;8.15;;;;;;;13.31;91.33;101383.34;6222750;23;20194;-81
2021/09/01 03:32:34;;;;;;;13.45;8.27;;;;;;;13.30;91.23;101382.50;6222555;23;20486;-81
2021/09/01 03:35:01;;;;;;;12.55;8.30;;;;;;;13.29;91.47;101382.56;6223892;23;20028;-81
2021/09/01 03:37:29;;;;;;;15.00;8.32;;;;;;;13.29;91.47;101388.75;6223946;23;20036;-82
2021/09/01 03:39:56;;;;;;;11.18;7.88;;;;;;;13.26;91.30;101378.22;6224049;23;20107;-82
2021/09/01 03:42:23;;;;;;;12.05;7.97;;;;;;;13.27;91.57;101387.06;6194926;23;20024;-82
2021/09/01 03:44:49;;;;;;;10.07;8.15;;;;;;;13.27;91.45;101385.28;6221080;23;20027;-82
2021/09/01 03:47:16;;;;;;;12.90;9.02;;;;;;;13.28;91.69;101388.81;6194255;23;20023;-82
2021/09/01 03:49:43;;;;;;;13.30;9.13;;;;;;;13.26;91.85;101402.16;6222540;23;20088;-82
2021/09/01 03:52:10;;;;;;;13.27;7.80;;;;;;;13.27;91.65;101403.91;6223428;23;20021;-82
2021/09/01 03:54:38;;;;;;;15.35;8.35;;;;;;;13.26;91.28;101403.97;6224090;23;20418;-82
2021/09/01 03:57:04;;;;;;;13.98;8.93;;;;;;;13.25;91.81;101400.44;6223454;23;20091;-82
2021/09/01 03:59:31;;;;;;;15.82;9.55;;;;;;;13.23;91.79;101393.44;6240337;23;20029;-83
2021/09/01 04:02:02;;;;;;;14.23;8.95;;;;;;;13.21;92.02;101395.31;6243653;23;20016;-82
2021/09/01 04:04:30;;;;;;;12.68;8.40;;;;;;;13.19;92.31;101391.88;6228329;23;20027;-83
2021/09/01 04:06:59;;;;;;;14.13;8.63;;;;;;;13.20;92.55;101399.78;6225911;23;20032;-81
2021/09/01 04:09:25;;;;;;;17.73;9.23;;;;;;;13.22;92.48;101391.75;6224576;23;20023;-81
2021/09/01 04:11:53;;;;;;;14.00;8.40;;;;;;;13.21;92.77;101384.69;6203469;23;20016;-80
2021/09/01 04:14:21;;;;;;;15.50;9.15;;;;;;;13.23;93.02;101396.97;6237894;23;20035;-79
2021/09/01 04:16:47;;;;;;;15.77;9.40;;;;;;;13.22;92.96;101397.88;6240057;23;20033;-80
2021/09/01 04:19:14;;;;;;;14.77;9.13;;;;;;;13.24;93.07;101395.16;6239090;23;20016;-80
2021/09/01 04:21:41;;;;;;;13.75;8.43;;;;;;;13.28;93.25;101410.09;6200415;23;20077;-82
2021/09/01 04:24:08;;;;;;;13.82;8.52;;;;;;;13.23;92.87;101402.28;6222847;23;20016;-82
2021/09/01 04:26:35;;;;;;;12.00;8.88;;;;;;;13.26;92.84;101406.63;6223680;23;20353;-82
2021/09/01 04:29:01;;;;;;;12.55;8.48;;;;;;;13.27;92.74;101413.66;6223554;23;20103;-82
2021/09/01 04:31:28;;;;;;;14.52;8.55;;;;;;;13.26;92.40;101410.16;6221751;23;20064;-82
2021/09/01 04:33:55;;;;;;;14.77;8.95;;;;;;;13.25;92.94;101413.72;6222631;23;20075;-81
2021/09/01 04:36:22;;;;;;;14.40;8.35;;;;;;;13.24;93.14;101408.47;6222826;23;20107;-83
2021/09/01 04:38:48;;;;;;;13.75;8.68;;;;;;;13.29;93.55;101411.81;6222949;23;20019;-82
2021/09/01 04:41:15;;;;;;;12.02;8.35;;;;;;;13.26;92.96;101410.16;6222195;23;20462;-83
2021/09/01 04:43:42;;;;;;;14.63;8.73;;;;;;;13.33;92.88;101416.09;6224027;23;20115;-83
2021/09/01 04:46:08;;;;;;;14.65;8.55;;;;;;;13.39;93.00;101417.59;6224705;23;20104;-83
2021/09/01 04:48:35;;;;;;;13.70;8.80;;;;;;;13.40;92.79;101409.56;6225790;23;20451;-83
2021/09/01 04:51:02;;;;;;;12.70;8.80;;;;;;;13.38;92.39;101411.41;6237462;23;20075;-82
2021/09/01 04:53:29;;;;;;;11.43;8.55;;;;;;;13.34;92.15;101410.69;6241484;23;20036;-83
2021/09/01 04:55:55;;;;;;;13.15;8.98;;;;;;;13.33;92.55;101424.06;6241569;23;20080;-82
2021/09/01 04:58:22;;;;;;;15.32;8.90;;;;;;;13.29;92.32;101419.78;6241321;23;20096;-82
2021/09/01 05:00:54;;;;;;;13.10;8.63;;;;;;;13.26;92.74;101423.44;6223461;23;20047;-82
2021/09/01 05:03:21;;;;;;;11.65;8.82;;;;;;;13.26;92.96;101427.91;6222535;23;20072;-81
2021/09/01 05:05:48;;;;;;;15.73;8.90;;;;;;;13.25;92.49;101427.03;6195725;23;20075;-81
2021/09/01 05:08:14;;;;;;;12.98;9.18;;;;;;;13.23;92.49;101426.22;6222448;23;20100;-82
2021/09/01 05:10:41;;;;;;;13.52;8.80;;;;;;;13.22;92.79;101426.31;6223862;23;20016;-82
2021/09/01 05:13:09;;;;;;;13.43;9.15;;;;;;;13.22;92.29;101427.16;6240630;23;20024;-82
2021/09/01 05:15:56;;;;;;;13.63;9.32;;;;;;;13.23;92.88;101428.00;6216870;23;20021;-82
2021/09/01 05:18:23;;;;;;;12.88;8.73;;;;;;;13.25;93.10;101429.69;6235804;23;20024;-81
2021/09/01 05:20:55;;;;;;;11.88;8.80;;;;;;;13.26;92.79;101428.75;6242643;23;20035;-81
2021/09/01 05:23:29;;;;;;;14.57;9.35;;;;;;;13.26;92.32;101431.41;6243675;23;20032;-81
2021/09/01 05:26:04;;;;;;;13.32;9.68;;;;;;;13.28;92.33;101439.34;6243692;23;20024;-82
2021/09/01 05:28:34;;;;;;;16.42;10.18;;;;;;;13.28;92.35;101437.53;6241064;23;20009;-81
2021/09/01 05:31:03;;;;;;;16.40;9.60;;;;;;;13.28;92.43;101439.34;6241060;23;20036;-81
2021/09/01 05:33:32;;;;;;;15.73;9.20;;;;;;;13.34;92.76;101450.59;6209333;23;20025;-83
2021/09/01 05:36:00;;;;;;;16.23;9.77;;;;;;;13.41;92.70;101445.00;6228452;23;20017;-82
2021/09/01 05:38:31;;;;;;;15.88;9.90;;;;;;;13.43;92.90;101451.13;6225593;23;20029;-82
2021/09/01 05:40:59;;;;;;;16.02;10.55;;;;;;;13.48;93.14;101444.69;6224055;23;20024;-83
2021/09/01 05:43:26;;;;;;;19.88;10.48;;;;;;;13.57;93.18;101448.75;6225058;23;20287;-82
2021/09/01 05:45:53;;;;;;;20.98;9.93;;;;;;;13.63;92.99;101448.50;6223886;23;20059;-82
2021/09/01 05:48:21;;;;;;;15.80;10.15;;;;;;;13.72;92.36;101444.56;6222720;23;20048;-82
2021/09/01 05:50:54;;;;;;;17.35;9.95;;;;;;;13.81;92.09;101446.84;6224332;23;20443;-83
2021/09/01 05:53:23;;;;;;;16.23;9.82;;;;;;;13.90;91.77;101439.31;6220116;23;20060;-82
2021/09/01 05:55:52;;;;;;;16.65;9.90;;;;;;;14.02;91.75;101452.06;6225285;23;20105;-84
2021/09/01 05:58:20;;;;;;;17.88;9.30;;;;;;;14.14;91.34;101448.03;6224356;23;20031;-83
2021/09/01 06:01:00;;;;;;;15.50;9.85;;;;;;;14.24;91.01;101444.00;6221604;23;20099;-82
2021/09/01 06:03:34;;;;;;;18.80;9.27;;;;;;;14.34;90.58;101449.75;6223029;23;20048;-83
2021/09/01 06:06:03;;;;;;;14.30;9.20;;;;;;;14.44;90.01;101451.13;6223206;23;20646;-83
2021/09/01 06:08:33;;;;;;;15.07;9.80;;;;;;;14.55;90.36;101447.94;6222242;23;20462;-82
2021/09/01 06:11:05;;;;;;;15.23;9.75;;;;;;;14.83;89.09;101448.38;6223499;23;20040;-82
2021/09/01 06:13:33;;;;;;;15.40;9.02;;;;;;;15.08;88.99;101456.94;6223372;23;20028;-83
2021/09/01 06:16:02;;;;;;;15.70;9.15;;;;;;;15.28;86.74;101453.25;6223586;23;20032;-83
2021/09/01 06:18:30;;;;;;;13.35;8.13;;;;;;;15.51;85.77;101451.25;6224106;23;20507;-83
2021/09/01 06:20:56;;;;;;;16.33;8.80;;;;;;;15.74;84.96;101464.34;6223976;23;20067;-82
2021/09/01 06:23:24;;;;;;;15.50;8.57;;;;;;;15.92;84.03;101462.50;6223038;23;20039;-82
2021/09/01 06:29:31;;;;;;;17.27;8.73;;;;;;;16.22;81.49;101462.69;6224326;23;20050;-82
2021/09/01 06:32:00;;;;;;;11.93;7.95;;;;;;;16.33;80.93;101463.84;6224232;23;20567;-82
2021/09/01 06:34:28;;;;;;;13.52;8.25;;;;;;;16.37;79.83;101461.88;6224883;23;20024;-83
2021/09/01 06:36:55;;;;;;;15.90;8.38;;;;;;;16.43;80.03;101470.41;6226056;23;20071;-82
2021/09/01 06:39:22;;;;;;;13.63;8.63;;;;;;;16.55;80.11;101462.66;6225406;23;20021;-82
2021/09/01 06:41:48;;;;;;;14.98;8.18;;;;;;;16.73;78.83;101461.69;6226545;23;20473;-82
2021/09/01 06:44:15;;;;;;;13.32;8.77;;;;;;;16.87;78.14;101461.78;6225738;23;20029;-82
2021/09/01 06:46:42;;;;;;;14.20;8.10;;;;;;;17.06;77.22;101462.47;6232240;23;20028;-83
2021/09/01 06:49:09;;;;;;;14.02;7.93;;;;;;;17.42;77.11;101464.84;6230889;23;20585;-81
2021/09/01 06:51:36;;;;;;;14.95;7.90;;;;;;;17.78;75.30;101464.53;6236125;23;20032;-83
2021/09/01 06:54:03;;;;;;;16.05;7.93;;;;;;;18.11;73.37;101468.75;6237630;23;20351;-84
2021/09/01 06:56:30;;;;;;;20.45;8.65;;;;;;;18.22;72.86;101460.94;6234615;23;20048;-82
2021/09/01 06:58:56;;;;;;;15.68;7.90;;;;;;;18.39;71.72;101466.13;6223161;23;20112;-81
2021/09/01 07:01:23;;;;;;;15.43;7.72;;;;;;;18.50;70.29;101463.63;6224142;23;20112;-81
2021/09/01 07:03:54;;;;;;;14.23;7.95;;;;;;;18.43;70.18;101467.63;6224045;23;20028;-81
2021/09/01 07:06:21;;;;;;;14.30;8.38;;;;;;;18.44;70.21;101464.00;6224202;23;20012;-81
2021/09/01 07:08:50;;;;;;;14.10;7.65;;;;;;;18.49;69.83;101461.91;6223753;23;20043;-83
2021/09/01 07:11:18;;;;;;;15.05;7.40;;;;;;;18.63;70.50;101476.28;6223497;23;20072;-86
2021/09/01 07:13:45;;;;;;;13.57;7.30;;;;;;;18.67;70.37;101448.31;6175810;23;20078;-83
2021/09/01 07:16:12;;;;;;;15.38;7.88;;;;;;;18.94;69.88;101470.66;6225529;23;20024;-84
2021/09/01 07:18:41;;;;;;;12.13;6.70;;;;;;;18.99;68.41;101467.69;6223417;23;20024;-84
2021/09/01 07:21:10;;;;;;;13.88;6.88;;;;;;;18.98;67.63;101474.03;6225639;23;20021;-86
2021/09/01 07:23:37;;;;;;;11.70;7.18;;;;;;;18.86;66.49;101475.69;6224648;23;20023;-84
2021/09/01 07:26:04;;;;;;;15.43;7.90;;;;;;;18.51;68.35;101478.75;6224437;23;20080;-83
2021/09/01 07:28:31;;;;;;;13.57;8.05;;;;;;;18.42;69.16;101473.94;6222379;23;20027;-82
2021/09/01 07:30:57;;;;;;;15.27;8.00;;;;;;;18.42;69.74;101482.00;6196614;23;20160;-83
2021/09/01 07:33:24;;;;;;;15.00;7.25;;;;;;;18.55;69.36;101484.78;6226661;23;20083;-84
2021/09/01 07:35:55;;;;;;;15.15;7.82;;;;;;;18.56;70.11;101482.03;6224534;23;20011;-82
2021/09/01 07:38:22;;;;;;;13.32;7.60;;;;;;;18.59;69.87;101486.34;6223399;23;20501;-82
2021/09/01 07:40:49;;;;;;;12.95;7.30;;;;;;;18.63;68.68;101487.88;6207750;23;20056;-81
2021/09/01 07:43:16;;;;;;;13.35;7.32;;;;;;;18.75;69.24;101481.72;6240235;23;20024;-80
2021/09/01 07:45:43;;;;;;;12.68;7.25;;;;;;;18.97;67.71;101491.09;6236350;23;20046;-82
2021/09/01 07:48:13;;;;;;;12.30;7.78;;;;;;;18.99;66.64;101491.84;6224747;23;20021;-82
2021/09/01 07:50:41;;;;;;;13.45;7.95;;;;;;;18.88;67.35;101495.25;6223303;23;20103;-79
2021/09/01 07:53:09;;;;;;;14.40;7.93;;;;;;;19.00;67.31;101497.13;6223115;23;20096;-80
2021/09/01 07:55:36;;;;;;;14.75;7.22;;;;;;;19.08;66.37;101502.84;6224758;23;20334;-80
2021/09/01 07:58:03;;;;;;;13.88;8.38;;;;;;;19.01;66.70;101512.28;6232167;23;20027;-80
2021/09/01 08:00:30;;;;;;;12.80;7.95;;;;;;;18.92;66.78;101500.28;6227261;23;20024;-80
2021/09/01 08:02:57;;;;;;;17.65;8.40;;;;;;;18.79;67.25;101503.88;6222228;23;20020;-81
2021/09/01 08:05:25;;;;;;;13.02;8.32;;;;;;;18.62;67.90;101504.94;6222056;23;20032;-83
2021/09/01 08:07:51;;;;;;;13.73;8.15;;;;;;;18.48;68.45;101523.69;6170118;23;20047;-83
2021/09/01 08:10:20;;;;;;;17.67;8.15;;;;;;;18.37;69.52;101520.81;6221506;23;20330;-82
2021/09/01 08:12:47;;;;;;;13.45;7.82;;;;;;;18.47;70.25;101524.63;6219825;23;20067;-83
2021/09/01 08:15:14;;;;;;;12.98;7.63;;;;;;;18.41;70.46;101525.03;6194059;23;20031;-83
2021/09/01 08:17:41;;;;;;;15.90;7.90;;;;;;;18.61;69.51;101527.34;6221284;23;20017;-83
2021/09/01 08:20:08;;;;;;;11.85;7.57;;;;;;;18.88;69.00;101527.44;6222999;23;20089;-83
2021/09/01 08:22:35;;;;;;;15.65;8.10;;;;;;;18.94;66.25;101529.72;6230981;23;20024;-83
2021/09/01 08:25:03;;;;;;;13.63;7.53;;;;;;;18.97;67.04;101534.03;6233966;23;20055;-84
2021/09/01 08:27:31;;;;;;;13.57;7.80;;;;;;;19.12;64.44;101538.41;6237595;23;20020;-82
2021/09/01 08:29:57;;;;;;;14.60;7.80;;;;;;;18.91;64.17;101538.81;6235554;23;20095;-82
2021/09/01 08:32:25;;;;;;;14.95;8.38;;;;;;;18.84;64.32;101537.50;6224018;23;20043;-84
2021/09/01 08:34:52;;;;;;;16.83;8.18;;;;;;;18.73;65.32;101544.53;6218257;23;20024;-83
2021/09/01 08:37:18;;;;;;;12.65;6.78;;;;;;;18.76;66.15;101539.78;6226291;23;20019;-83
2021/09/01 08:39:46;;;;;;;15.27;8.18;;;;;;;18.72;64.61;101556.22;6227556;23;20052;-83
2021/09/01 08:42:22;;;;;;;12.73;7.40;;;;;;;18.69;65.16;101541.16;6230027;23;20021;-83
2021/09/01 08:44:49;;;;;;;12.43;6.55;;;;;;;18.93;65.19;101546.78;6228518;23;20103;-82
2021/09/01 08:47:17;;;;;;;13.75;7.47;;;;;;;18.96;65.19;101543.91;6222696;23;20052;-82
2021/09/01 08:49:46;;;;;;;13.00;7.55;;;;;;;18.98;65.17;101535.75;6221572;23;20044;-83
2021/09/01 08:52:14;;;;;;;12.73;7.32;;;;;;;19.00;65.71;101541.91;6221075;23;20028;-83
2021/09/01 08:54:41;;;;;;;13.60;7.35;;;;;;;19.14;65.31;101542.75;6220992;23;20111;-81
2021/09/01 08:57:08;;;;;;;16.13;7.45;;;;;;;19.20;65.38;101546.84;6224533;23;20031;-84
2021/09/01 08:59:34;;;;;;;13.13;7.65;;;;;;;19.20;66.43;101546.84;6232837;23;20028;-82
2021/09/01 09:02:01;;;;;;;16.17;8.30;;;;;;;18.96;65.89;101551.97;6244698;22;20050;-83
2021/09/01 09:04:34;;;;;;;14.70;7.38;;;;;;;18.91;67.14;101554.94;6244336;22;20046;-82
2021/09/01 09:07:03;;;;;;;11.32;7.65;;;;;;;18.93;67.34;101555.69;6225922;23;20387;-82
2021/09/01 09:09:32;;;;;;;14.48;8.10;;;;;;;18.86;66.97;101553.53;6222889;23;20035;-84
2021/09/01 09:12:03;;;;;;;11.90;7.80;;;;;;;18.79;67.00;101553.03;6223557;23;20402;-88
2021/09/01 09:15:29;;;;;;;13.98;7.38;;;;;;;18.94;67.93;101553.88;6092876;23;20491;-88
2021/09/01 09:21:22;;;;;;;13.43;7.05;;;;;;;19.12;66.66;101543.78;6161359;23;20145;-86
2021/09/01 09:23:51;;;;;;;12.75;7.18;;;;;;;18.87;65.45;101550.75;6159424;23;20100;-81
2021/09/01 09:26:29;;;;;;;13.43;8.13;;;;;;;18.78;66.34;101558.50;6160144;23;20040;-85
2021/09/01 09:29:17;;;;;;;16.08;7.78;;;;;;;18.73;67.09;101558.78;6160996;23;20025;-82
2021/09/01 09:31:57;;;;;;;15.73;8.07;;;;;;;18.72;66.43;101557.06;6165754;23;20069;-82
2021/09/01 09:34:42;;;;;;;11.40;7.18;;;;;;;18.77;66.94;101557.63;6227320;23;20071;-85
2021/09/01 09:37:14;;;;;;;13.32;8.52;;;;;;;18.95;66.22;101552.06;6242736;22;20064;-86
2021/09/01 09:39:46;;;;;;;12.02;7.43;;;;;;;19.10;66.37;101551.94;6241157;22;20035;-86
2021/09/01 09:42:37;;;;;;;14.70;7.88;;;;;;;19.09;65.72;101560.94;6242067;22;20076;-86
2021/09/01 09:45:24;;;;;;;13.68;8.20;;;;;;;19.09;65.25;101560.09;6229493;23;20056;-86
2021/09/01 09:47:55;;;;;;;14.63;7.90;;;;;;;19.16;65.56;101573.03;6224814;23;20012;-85
2021/09/01 09:50:22;;;;;;;;;;;;;;;19.19;65.76;101566.63;6225393;23;20023;-81
2021/09/01 09:52:50;;;;;;;12.65;6.97;;;;;;;19.38;64.94;101560.88;6222879;23;19915;-81
2021/09/01 09:55:19;;;;;;;13.48;7.65;;;;;;;19.42;64.29;101555.22;6221275;23;20358;-83
2021/09/01 09:57:56;;;;;;;14.03;7.77;;;;;;;19.26;63.16;101552.69;6222595;23;20056;-84
2021/09/01 10:00:25;;;;;;;15.60;8.02;;;;;;;19.18;63.68;101549.63;6218602;23;20100;-82
2021/09/01 10:02:52;;;;;;;11.02;7.00;;;;;;;19.15;63.42;101551.66;6221162;23;20017;-80
2021/09/01 10:05:24;;;;;;;14.65;7.90;;;;;;;19.19;62.96;101543.31;6226098;23;20048;-86
2021/09/01 10:07:52;;;;;;;11.80;7.07;;;;;;;19.15;63.37;101549.84;6224253;23;20029;-81
2021/09/01 10:10:20;;;;;;;14.25;7.75;;;;;;;19.21;62.91;101545.88;6221917;23;20095;-83
2021/09/01 10:12:48;;;;;;;11.55;6.88;;;;;;;19.33;63.01;101541.53;6222008;23;20161;-83
2021/09/01 10:15:31;;;;;;;13.27;7.18;;;;;;;19.60;62.75;101546.00;6223205;23;20017;-85
2021/09/01 10:18:05;;;;;;;12.05;7.20;;;;;;;19.72;61.80;101535.38;6226028;23;20082;-85
2021/09/01 10:20:57;;;;;;;13.27;7.18;;;;;;;19.81;60.59;101535.63;6226725;23;20048;-84
2021/09/01 10:23:40;;;;;;;12.95;6.53;;;;;;;19.84;61.16;101538.09;6226504;23;20060;-83
2021/09/01 10:26:27;;;;;;;12.23;7.05;;;;;;;19.85;60.94;101529.06;6219870;23;20017;-84
2021/09/01 10:28:56;;;;;;;12.65;7.90;;;;;;;19.86;60.36;101529.94;6221924;23;20075;-83
2021/09/01 10:31:27;;;;;;;13.82;7.18;;;;;;;19.89;60.16;101513.59;6221513;23;20059;-83
2021/09/01 10:34:03;;;;;;;12.65;7.13;;;;;;;19.95;59.93;101527.50;6227652;23;20016;-84
2021/09/01 10:36:30;;;;;;;11.98;5.85;;;;;;;19.98;60.57;101522.88;6222811;23;20016;-83
2021/09/01 10:39:15;;;;;;;10.60;6.45;;;;;;;19.96;60.35;101523.84;6221724;23;20044;-83
2021/09/01 10:41:42;;;;;;;12.43;6.88;;;;;;;20.02;60.69;101524.38;6235318;23;20024;-85
2021/09/01 10:44:20;;;;;;;10.50;6.70;;;;;;;20.08;60.08;101513.22;6240543;23;20051;-84
2021/09/01 10:46:53;;;;;;;11.60;6.03;;;;;;;20.30;59.39;101529.59;6241063;23;20039;-84
2021/09/01 10:49:24;;;;;;;11.10;7.05;;;;;;;20.34;58.11;101520.31;6237693;23;20040;-83
2021/09/01 10:51:53;;;;;;;15.80;7.55;;;;;;;20.08;59.10;101523.97;6223591;23;20111;-84
2021/09/01 10:54:30;;;;;;;10.85;7.07;;;;;;;20.07;59.40;101525.78;6221264;23;20027;-83
2021/09/01 10:56:59;;;;;;;10.98;6.55;;;;;;;20.18;59.05;101519.66;6219813;23;20096;-84
2021/09/01 10:59:27;;;;;;;11.27;6.82;;;;;;;20.26;58.12;101506.56;6220608;23;20100;-84
2021/09/01 11:02:08;;;;;;;12.05;7.38;;;;;;;20.25;58.74;101504.84;6196206;23;20072;-85
2021/09/01 11:04:44;;;;;;;9.80;6.70;;;;;;;20.44;57.96;101504.44;6224850;23;20035;-82
2021/09/01 11:07:17;;;;;;;10.93;6.30;;;;;;;20.55;57.92;101500.00;6226308;23;20035;-83
2021/09/01 11:09:44;;;;;;;11.45;6.38;;;;;;;20.59;57.69;101503.34;6224801;23;20099;-86
2021/09/01 11:12:15;;;;;;;10.00;6.85;;;;;;;20.68;57.50;101502.69;6219176;23;20107;-84
2021/09/01 11:14:43;;;;;;;12.77;6.40;;;;;;;20.71;57.21;101497.06;6223337;23;20521;-84
2021/09/01 11:17:19;;;;;;;8.93;6.60;;;;;;;20.90;56.24;101500.16;6224211;23;20095;-83
2021/09/01 11:19:48;;;;;;;12.80;6.93;;;;;;;21.04;56.18;101496.47;6221445;23;20107;-86
2021/09/01 11:22:19;;;;;;;13.05;7.07;;;;;;;21.12;55.97;101502.13;6237916;23;20036;-84
2021/09/01 11:24:52;;;;;;;12.30;6.75;;;;;;;21.30;55.37;101502.66;6242894;23;20032;-84
2021/09/01 11:27:23;;;;;;;11.30;6.82;;;;;;;21.43;55.40;101503.44;6224438;23;20112;-85
2021/09/01 11:29:50;;;;;;;;;;;;;;;21.30;54.43;101502.66;6220889;23;20433;-85
2021/09/01 11:32:20;;;;;;;9.90;5.57;;;;;;;21.11;55.55;101491.47;6194032;23;20222;-86
2021/09/01 11:34:48;;;;;;;11.73;6.00;;;;;;;20.98;55.78;101495.06;6193311;23;20050;-85